Time;durP1;ratioP1;P1;durP2;ratioP2;P2;SDS_P1;SDS_P2;PMS_P1;PMS_P2;Temp;Humidity;BMP_temperature;BMP_pressure;BME280_temperature;BME280_humidity;BME280_pressure;Samples;Min_cycle;Max_cycle;Signal;HPM_P1;HPM_P2
2024/01/17 00:02:06;;;;;;;19.58;12.15;;;;;;;3.14;55.54;100257.63;4968634;28;97737;-81
2024/01/17 00:04:33;;;;;;;16.92;11.98;;;;;;;3.13;55.64;100255.03;4947712;28;98544;-81
2024/01/17 00:07:00;;;;;;;20.52;12.10;;;;;;;3.11;55.58;100247.16;4963979;28;98231;-80
2024/01/17 00:09:27;;;;;;;14.30;11.85;;;;;;;3.10;55.57;100245.44;4946812;28;97502;-80
2024/01/17 00:11:53;;;;;;;18.27;11.98;;;;;;;3.10;55.64;100240.13;4945802;28;98556;-80
2024/01/17 00:14:21;;;;;;;19.30;11.65;;;;;;;3.08;55.76;100234.03;4955842;28;100374;-80
2024/01/17 00:16:48;;;;;;;17.42;11.82;;;;;;;3.09;55.97;100229.59;4963464;28;98685;-80
2024/01/17 00:19:15;;;;;;;18.83;11.73;;;;;;;3.09;55.72;100222.50;4960041;28;97574;-80
2024/01/17 00:21:42;;;;;;;16.50;11.65;;;;;;;3.09;55.67;100209.22;4932843;28;97322;-80
2024/01/17 00:24:10;;;;;;;17.48;11.52;;;;;;;3.10;55.79;100212.75;4947535;28;99962;-81
2024/01/17 00:26:37;;;;;;;16.92;11.57;;;;;;;3.10;55.71;100203.00;4950694;28;97995;-80
2024/01/17 00:29:04;;;;;;;21.15;12.27;;;;;;;3.11;55.64;100203.84;4946082;28;97793;-80
2024/01/17 00:31:31;;;;;;;19.77;11.80;;;;;;;3.10;55.69;100207.44;4927144;28;97089;-80
2024/01/17 00:33:57;;;;;;;19.42;12.23;;;;;;;3.08;55.70;100199.56;4928940;28;100477;-80
2024/01/17 00:36:25;;;;;;;16.70;11.88;;;;;;;3.08;55.81;100202.22;4940861;28;100506;-81
2024/01/17 00:38:52;;;;;;;14.27;11.57;;;;;;;3.08;55.92;100209.31;4940219;28;100368;-81
2024/01/17 00:41:19;;;;;;;15.90;12.30;;;;;;;3.08;55.67;100206.66;4957151;28;98056;-81
2024/01/17 00:43:46;;;;;;;16.83;11.80;;;;;;;3.07;55.82;100197.84;4929720;28;98534;-81
2024/01/17 00:46:13;;;;;;;18.58;12.38;;;;;;;3.07;55.86;100191.69;4955143;28;100332;-80
2024/01/17 00:48:39;;;;;;;17.75;11.77;;;;;;;3.07;55.92;100184.56;4953750;28;97196;-80
2024/01/17 00:51:06;;;;;;;19.55;12.90;;;;;;;3.08;55.89;100183.63;4944764;28;98221;-81
2024/01/17 00:53:33;;;;;;;16.38;11.02;;;;;;;3.08;55.78;100183.63;4944811;28;100181;-80
2024/01/17 00:56:00;;;;;;;15.93;11.52;;;;;;;3.09;55.97;100174.75;4961612;28;97621;-81
2024/01/17 00:58:27;;;;;;;21.70;12.55;;;;;;;3.10;55.95;100181.78;4927955;28;97442;-81
2024/01/17 01:00:55;;;;;;;20.55;12.27;;;;;;;3.12;56.03;100173.72;4959221;28;97929;-80
2024/01/17 01:03:22;;;;;;;14.77;12.02;;;;;;;3.11;55.84;100166.72;4948276;28;98154;-81
2024/01/17 01:05:49;;;;;;;20.88;12.98;;;;;;;3.10;55.89;100159.69;4944024;28;97888;-81
2024/01/17 01:08:16;;;;;;;17.92;12.23;;;;;;;3.10;55.88;100151.72;4962824;28;97400;-80
2024/01/17 01:10:42;;;;;;;17.15;12.63;;;;;;;3.09;55.92;100152.66;4949068;28;98154;-81
2024/01/17 01:13:10;;;;;;;18.27;12.70;;;;;;;3.09;56.01;100147.34;4962988;28;98631;-81
2024/01/17 01:15:36;;;;;;;17.08;12.55;;;;;;;3.07;55.82;100144.78;4957920;28;98630;-81
2024/01/17 01:18:03;;;;;;;17.02;12.23;;;;;;;3.08;56.04;100127.94;4960937;28;97233;-80
2024/01/17 01:20:30;;;;;;;18.42;12.32;;;;;;;3.08;55.95;100135.88;4927727;28;97238;-81
2024/01/17 01:22:57;;;;;;;15.70;12.05;;;;;;;3.08;55.88;100135.03;4965743;28;98132;-81
2024/01/17 01:25:24;;;;;;;19.00;11.57;;;;;;;3.07;55.83;100117.41;4964002;28;98597;-81
2024/01/17 01:27:50;;;;;;;16.83;12.45;;;;;;;3.05;55.96;100120.13;4952356;28;97083;-82
2024/01/17 01:30:17;;;;;;;17.05;11.85;;;;;;;3.01;55.80;100107.97;4930829;28;96869;-81
2024/01/17 01:32:44;;;;;;;15.70;11.52;;;;;;;2.95;55.90;100112.69;4952472;28;100722;-81
2024/01/17 01:35:11;;;;;;;17.88;11.43;;;;;;;2.90;55.95;100106.78;4941378;28;100014;-81
2024/01/17 01:37:37;;;;;;;18.23;11.52;;;;;;;2.86;55.98;100109.59;4939393;28;97385;-81
2024/01/17 01:40:07;;;;;;;18.75;12.18;;;;;;;2.84;55.99;100103.50;4946977;28;97563;-81
2024/01/17 01:42:34;;;;;;;17.15;11.65;;;;;;;2.84;55.92;100102.66;4945702;28;100346;-81
2024/01/17 01:45:01;;;;;;;18.05;12.05;;;;;;;2.84;55.89;100102.66;4944149;28;100264;-81
2024/01/17 01:47:29;;;;;;;17.92;11.43;;;;;;;2.84;56.16;100098.19;4925080;28;97283;-81
2024/01/17 01:49:56;;;;;;;16.20;11.55;;;;;;;2.84;55.94;100089.38;4960879;28;97202;-81
2024/01/17 01:52:23;;;;;;;18.92;11.48;;;;;;;2.83;55.92;100095.63;4944458;28;98329;-81
2024/01/17 01:54:50;;;;;;;19.38;11.32;;;;;;;2.80;56.02;100088.69;4937538;28;100758;-81
2024/01/17 01:57:17;;;;;;;13.88;10.57;;;;;;;2.77;55.81;100096.78;4944605;28;97368;-81
2024/01/17 01:59:45;;;;;;;17.23;11.80;;;;;;;2.75;55.85;100096.00;4949763;28;97670;-81
2024/01/17 02:02:13;;;;;;;15.20;11.20;;;;;;;2.75;56.23;100095.16;4966516;28;97687;-81
2024/01/17 02:04:41;;;;;;;18.33;11.90;;;;;;;2.72;55.92;100085.56;4943549;28;100371;-80
2024/01/17 02:07:11;;;;;;;17.33;11.07;;;;;;;2.72;56.02;100082.91;4944805;28;97307;-80
2024/01/17 02:09:38;;;;;;;14.90;10.82;;;;;;;2.71;55.86;100091.81;4945224;28;97307;-80
2024/01/17 02:12:07;;;;;;;16.83;11.88;;;;;;;2.68;55.98;100091.97;4939137;28;98448;-80
2024/01/17 02:14:36;;;;;;;15.85;11.27;;;;;;;2.65;56.10;100083.31;4924776;28;98530;-80
2024/01/17 02:17:03;;;;;;;14.57;11.80;;;;;;;2.65;56.09;100078.00;4940575;28;97199;-81
2024/01/17 02:19:30;;;;;;;20.52;10.35;;;;;;;2.64;56.03;100065.69;4959030;28;97293;-81
2024/01/17 02:21:57;;;;;;;14.15;10.63;;;;;;;2.65;55.94;100065.59;4945139;28;98546;-81
2024/01/17 02:24:23;;;;;;;21.27;10.43;;;;;;;2.64;56.08;100050.63;4952438;28;98089;-80
2024/01/17 02:26:50;;;;;;;19.05;10.98;;;;;;;2.60;55.96;100054.38;4937830;28;97196;-81
2024/01/17 02:29:17;;;;;;;13.88;10.88;;;;;;;2.60;56.24;100046.44;4935086;28;97141;-80
2024/01/17 02:31:44;;;;;;;12.88;10.10;;;;;;;2.59;56.17;100042.06;4935602;28;100203;-82
2024/01/17 02:34:12;;;;;;;12.27;10.02;;;;;;;2.58;56.33;100024.44;4944621;28;98146;-81
2024/01/17 02:36:39;;;;;;;17.67;10.73;;;;;;;2.59;56.23;100035.91;4967044;28;97338;-81
2024/01/17 02:39:06;;;;;;;12.90;9.15;;;;;;;2.53;56.17;100029.97;4948494;28;97318;-80
2024/01/17 02:41:32;;;;;;;16.00;10.38;;;;;;;2.50;56.27;100016.88;4938762;28;100332;-81
2024/01/17 02:43:59;;;;;;;17.13;10.50;;;;;;;2.49;56.16;100011.66;4948243;28;99912;-81
2024/01/17 02:46:28;;;;;;;14.15;9.80;;;;;;;2.48;56.41;100002.00;4929911;28;97637;-81
2024/01/17 02:48:55;;;;;;;13.82;9.57;;;;;;;2.46;56.20;100001.22;4975040;28;97287;-81
2024/01/17 02:51:22;;;;;;;13.80;9.52;;;;;;;2.45;56.10;99992.41;4949343;28;98623;-82
2024/01/17 02:53:49;;;;;;;13.32;10.40;;;;;;;2.44;56.19;99995.16;4949991;28;99603;-80
2024/01/17 02:56:16;;;;;;;14.60;10.50;;;;;;;2.41;56.31;99988.22;4948908;28;97168;-82
2024/01/17 02:58:44;;;;;;;12.38;9.85;;;;;;;2.40;56.25;99981.19;4937153;28;97897;-81
2024/01/17 03:01:15;;;;;;;15.95;9.45;;;;;;;2.40;56.18;99981.19;4951063;28;100671;-81
2024/01/17 03:03:42;;;;;;;15.85;9.90;;;;;;;2.40;56.13;99983.84;4953680;28;98021;-81
2024/01/17 03:06:10;;;;;;;14.95;10.40;;;;;;;2.40;56.30;99978.53;4938867;28;97035;-82
2024/01/17 03:08:36;;;;;;;12.55;9.77;;;;;;;2.37;56.12;99973.41;4970486;28;99940;-82
2024/01/17 03:11:06;;;;;;;14.70;10.00;;;;;;;2.36;56.09;99968.19;4969248;28;98287;-81
2024/01/17 03:13:32;;;;;;;15.00;10.35;;;;;;;2.34;56.07;99978.88;4951497;28;99065;-81
2024/01/17 03:15:59;;;;;;;19.70;10.95;;;;;;;2.37;56.17;99972.53;4965816;28;97307;-80
2024/01/17 03:18:26;;;;;;;12.98;9.15;;;;;;;2.34;56.16;99967.41;4943406;28;97793;-80
2024/01/17 03:20:52;;;;;;;17.83;9.85;;;;;;;2.33;56.11;99966.56;4949412;28;98433;-80
2024/01/17 03:23:19;;;;;;;14.43;9.82;;;;;;;2.33;56.07;99957.75;4946564;28;100780;-80
2024/01/17 03:25:46;;;;;;;16.30;10.43;;;;;;;2.32;56.13;99958.69;4947427;28;97353;-80
2024/01/17 03:28:13;;;;;;;16.73;9.57;;;;;;;2.34;56.16;99943.56;4960301;28;96822;-80
2024/01/17 03:30:42;;;;;;;14.90;10.10;;;;;;;2.34;56.16;99939.13;4949751;28;98108;-80
2024/01/17 03:33:09;;;;;;;12.68;9.20;;;;;;;2.35;55.98;99942.63;4949562;28;98383;-80
2024/01/17 03:35:36;;;;;;;16.23;9.90;;;;;;;2.35;56.22;99934.69;4944077;28;97172;-80
2024/01/17 03:38:04;;;;;;;11.95;8.73;;;;;;;2.36;56.17;99937.25;4959349;28;97482;-80
2024/01/17 03:40:30;;;;;;;13.73;9.52;;;;;;;2.35;56.11;99932.03;4949215;28;98521;-80
2024/01/17 03:42:57;;;;;;;14.63;9.60;;;;;;;2.35;56.03;99930.22;4962185;28;98974;-79
2024/01/17 03:45:24;;;;;;;14.23;8.73;;;;;;;2.33;56.21;99924.16;4943536;28;98249;-80
2024/01/17 03:47:51;;;;;;;16.15;9.95;;;;;;;2.34;56.17;99909.13;4953594;28;98600;-80
2024/01/17 03:50:18;;;;;;;12.48;9.00;;;;;;;2.35;56.18;99906.38;4944908;28;98074;-80
2024/01/17 03:52:44;;;;;;;14.38;9.90;;;;;;;2.35;56.10;99895.78;4945090;28;99160;-80
2024/01/17 03:55:11;;;;;;;13.52;9.65;;;;;;;2.34;56.19;99878.19;4945809;28;97353;-80
2024/01/17 03:57:37;;;;;;;16.25;9.85;;;;;;;2.34;56.04;99870.22;4957437;28;99054;-80
2024/01/17 04:00:06;;;;;;;14.82;9.38;;;;;;;2.35;56.21;99871.94;4945954;28;98174;-80
2024/01/17 04:02:33;;;;;;;18.45;10.45;;;;;;;2.34;56.20;99857.00;4944749;28;98065;-80
2024/01/17 04:05:00;;;;;;;15.18;9.00;;;;;;;2.34;56.21;99848.19;4929879;28;97401;-80
2024/01/17 04:07:27;;;;;;;16.05;9.82;;;;;;;2.33;55.97;99846.47;4942414;28;97057;-80
2024/01/17 04:09:54;;;;;;;14.13;9.70;;;;;;;2.31;56.07;99843.91;4945896;28;100424;-80
2024/01/17 04:12:21;;;;;;;16.25;10.05;;;;;;;2.32;56.08;99836.81;4945303;28;99196;-80
2024/01/17 04:14:48;;;;;;;18.23;9.68;;;;;;;2.32;56.06;99837.66;4965285;28;97598;-80
2024/01/17 04:17:15;;;;;;;18.80;9.93;;;;;;;2.32;56.09;99836.81;4944966;28;97082;-80
2024/01/17 04:19:41;;;;;;;14.75;9.45;;;;;;;2.26;55.97;99826.53;4944317;28;98727;-81
2024/01/17 04:22:09;;;;;;;13.20;9.07;;;;;;;2.21;56.12;99824.09;4960571;28;100951;-80
2024/01/17 04:24:36;;;;;;;13.10;8.90;;;;;;;2.19;56.33;99816.25;4930038;28;97242;-80
2024/01/17 04:27:03;;;;;;;12.18;8.77;;;;;;;2.16;55.94;99819.06;4956665;28;97335;-80
2024/01/17 04:29:30;;;;;;;12.10;8.57;;;;;;;2.15;56.06;99825.28;4939585;28;97738;-79
2024/01/17 04:31:57;;;;;;;14.32;9.60;;;;;;;2.13;56.06;99821.88;4958318;28;100466;-80
2024/01/17 04:34:27;;;;;;;15.15;9.00;;;;;;;2.12;56.05;99816.66;4945932;28;97207;-80
2024/01/17 04:36:54;;;;;;;13.55;8.98;;;;;;;2.10;56.09;99806.13;4940623;28;97187;-80
2024/01/17 04:39:20;;;;;;;13.27;9.30;;;;;;;2.09;56.14;99799.13;4957229;28;98363;-80
2024/01/17 04:41:47;;;;;;;15.23;9.52;;;;;;;2.07;55.96;99786.91;4958476;28;97546;-80
2024/01/17 04:44:14;;;;;;;17.95;9.35;;;;;;;2.06;56.18;99771.94;4956673;28;97014;-80
2024/01/17 04:46:41;;;;;;;14.32;9.82;;;;;;;2.03;55.89;99767.69;4954224;28;97389;-80
2024/01/17 04:49:08;;;;;;;12.10;8.52;;;;;;;2.04;56.04;99763.22;4952635;28;97390;-80
2024/01/17 04:51:35;;;;;;;13.35;8.88;;;;;;;2.04;56.00;99757.94;4945690;28;98154;-80
2024/01/17 04:54:02;;;;;;;14.13;8.90;;;;;;;2.04;56.01;99760.59;4960609;28;97329;-80
2024/01/17 04:56:29;;;;;;;15.02;9.80;;;;;;;2.04;56.10;99756.16;4943428;28;97763;-79
2024/01/17 04:58:56;;;;;;;13.93;8.50;;;;;;;2.07;56.03;99748.03;4957685;28;97233;-80
2024/01/17 05:01:23;;;;;;;14.68;9.05;;;;;;;2.07;56.05;99748.03;4953935;28;100883;-80
2024/01/17 05:03:50;;;;;;;14.80;8.60;;;;;;;2.05;56.06;99739.31;4948863;28;97491;-80
2024/01/17 05:06:16;;;;;;;14.30;8.90;;;;;;;2.06;55.90;99737.53;4964893;28;97461;-80
2024/01/17 05:08:44;;;;;;;14.60;9.23;;;;;;;2.03;55.86;99733.25;4962369;28;100866;-80
2024/01/17 05:11:10;;;;;;;12.43;8.32;;;;;;;2.02;56.14;99735.97;4931675;28;99087;-80
2024/01/17 05:13:38;;;;;;;17.90;9.63;;;;;;;2.02;56.06;99741.28;4955882;28;97234;-80
2024/01/17 05:16:05;;;;;;;14.95;9.82;;;;;;;2.04;56.11;99734.09;4963219;28;97061;-80
2024/01/17 05:18:31;;;;;;;13.80;8.63;;;;;;;2.04;56.15;99734.09;4940824;28;98377;-80
2024/01/17 05:21:00;;;;;;;13.55;9.10;;;;;;;2.03;56.17;99725.31;4955192;28;100504;-79
2024/01/17 05:23:27;;;;;;;14.93;9.05;;;;;;;2.03;56.17;99716.50;4944420;28;97437;-79
2024/01/17 05:25:54;;;;;;;17.10;8.85;;;;;;;2.01;55.96;99719.25;4959309;28;97431;-82
2024/01/17 05:28:22;;;;;;;13.98;8.65;;;;;;;1.99;56.39;99710.53;4944179;28;100443;-80
2024/01/17 05:30:49;;;;;;;12.05;8.95;;;;;;;1.96;56.14;99692.16;4944862;28;98435;-80
2024/01/17 05:33:16;;;;;;;12.43;8.93;;;;;;;1.95;56.07;99685.16;4926155;28;97181;-80
2024/01/17 05:35:44;;;;;;;15.40;8.90;;;;;;;1.98;56.19;99684.13;4944595;28;97062;-79
2024/01/17 05:38:10;;;;;;;11.85;8.52;;;;;;;1.97;55.89;99682.41;4941077;28;100056;-80
2024/01/17 05:40:38;;;;;;;15.40;9.20;;;;;;;1.95;56.29;99671.91;4943246;28;100364;-79
2024/01/17 05:43:05;;;;;;;16.88;9.30;;;;;;;1.99;56.12;99681.41;4943279;28;97367;-80
2024/01/17 05:45:32;;;;;;;16.27;9.20;;;;;;;2.01;56.24;99676.88;4943415;28;97157;-81
2024/01/17 05:47:59;;;;;;;13.25;8.73;;;;;;;2.02;56.20;99675.06;4927859;28;100102;-81
2024/01/17 05:50:26;;;;;;;16.67;8.80;;;;;;;2.04;56.30;99668.75;4944550;28;100128;-81
2024/01/17 05:52:53;;;;;;;13.77;9.13;;;;;;;2.04;56.27;99662.59;4945323;28;97275;-80
2024/01/17 05:55:20;;;;;;;12.98;9.05;;;;;;;2.02;56.26;99660.03;4924943;28;97377;-80
2024/01/17 05:57:47;;;;;;;15.57;9.32;;;;;;;2.00;56.11;99645.19;4940641;28;98838;-80
2024/01/17 06:00:14;;;;;;;13.82;8.85;;;;;;;2.01;56.18;99639.81;4946856;28;100142;-80
2024/01/17 06:02:45;;;;;;;14.63;9.23;;;;;;;2.04;56.24;99633.47;4947341;28;96913;-80
2024/01/17 06:05:12;;;;;;;11.88;8.32;;;;;;;2.03;56.18;99631.78;4964487;28;97185;-80
2024/01/17 06:07:42;;;;;;;13.57;8.73;;;;;;;2.04;56.27;99634.34;4947081;28;98659;-80
2024/01/17 06:10:12;;;;;;;17.63;9.15;;;;;;;2.06;56.29;99643.06;4961279;28;97305;-80
2024/01/17 06:12:40;;;;;;;17.23;9.57;;;;;;;2.10;56.27;99635.78;4930489;28;97430;-80
2024/01/17 06:15:08;;;;;;;16.05;8.95;;;;;;;2.13;56.14;99625.03;4944957;28;97584;-79
2024/01/17 06:17:35;;;;;;;16.33;9.32;;;;;;;2.11;56.39;99622.47;4944180;28;99848;-80
2024/01/17 06:20:02;;;;;;;16.23;9.93;;;;;;;2.11;56.10;99611.00;4924776;28;99870;-80
2024/01/17 06:22:29;;;;;;;14.52;9.65;;;;;;;2.13;56.27;99604.69;4964705;28;97405;-80
2024/01/17 06:24:56;;;;;;;14.20;9.98;;;;;;;2.17;56.20;99602.72;4940823;28;97425;-80
2024/01/17 06:27:23;;;;;;;15.77;10.10;;;;;;;2.19;56.37;99603.50;4957542;28;98062;-80
2024/01/17 06:29:51;;;;;;;16.67;10.05;;;;;;;2.18;56.24;99601.78;4938033;28;98715;-80
2024/01/17 06:32:18;;;;;;;15.32;9.52;;;;;;;2.16;56.18;99598.38;4919820;28;97294;-81
2024/01/17 06:34:45;;;;;;;13.52;9.88;;;;;;;2.14;56.07;99594.94;4954404;28;97173;-80
2024/01/17 06:37:11;;;;;;;17.10;10.27;;;;;;;2.14;56.11;99594.94;4941001;28;100227;-80
2024/01/17 06:39:39;;;;;;;15.35;9.27;;;;;;;2.12;56.20;99591.53;4962100;28;97822;-80
2024/01/17 06:42:06;;;;;;;13.60;9.27;;;;;;;2.10;56.15;99591.63;4964044;28;97046;-80
2024/01/17 06:44:33;;;;;;;12.45;9.20;;;;;;;2.09;56.08;99589.06;4942825;28;97405;-80
2024/01/17 06:47:00;;;;;;;19.75;9.85;;;;;;;2.08;55.74;99584.69;4943936;28;98445;-79
2024/01/17 06:49:27;;;;;;;15.70;9.50;;;;;;;2.04;56.07;99580.53;4961220;28;98335;-80
2024/01/17 06:51:57;;;;;;;16.63;9.32;;;;;;;2.04;56.18;99580.53;4940649;28;97295;-79
2024/01/17 06:54:24;;;;;;;15.27;9.60;;;;;;;2.03;56.14;99577.03;4932832;28;97470;-80
2024/01/17 06:56:51;;;;;;;15.27;10.15;;;;;;;2.03;56.19;99566.44;4941525;28;100590;-80
2024/01/17 06:59:18;;;;;;;15.57;10.52;;;;;;;2.03;56.02;99571.72;4935289;28;100012;-81
2024/01/17 07:01:45;;;;;;;17.20;10.43;;;;;;;1.99;56.21;99558.75;4928375;28;97480;-80
2024/01/17 07:04:12;;;;;;;18.25;10.48;;;;;;;1.95;56.20;99557.22;4964112;28;99818;-80
2024/01/17 07:06:38;;;;;;;16.70;10.85;;;;;;;1.92;56.02;99543.22;4922197;28;99890;-79
2024/01/17 07:09:07;;;;;;;16.25;9.43;;;;;;;1.90;55.99;99544.22;4943716;28;97932;-80
2024/01/17 07:11:34;;;;;;;15.70;10.40;;;;;;;1.87;56.18;99545.25;4950963;28;98079;-79
2024/01/17 07:14:00;;;;;;;14.30;10.15;;;;;;;1.85;56.17;99547.13;4965051;28;96908;-81
2024/01/17 07:16:27;;;;;;;15.73;11.20;;;;;;;1.84;56.20;99539.28;4928260;28;98464;-81
2024/01/17 07:18:55;;;;;;;13.25;10.02;;;;;;;1.87;56.29;99531.16;4947900;28;100271;-80
2024/01/17 07:21:22;;;;;;;16.55;10.05;;;;;;;1.89;56.33;99527.50;4929224;28;97390;-81
2024/01/17 07:23:49;;;;;;;16.58;10.25;;;;;;;1.91;56.10;99525.63;4940686;28;96991;-81
2024/01/17 07:26:17;;;;;;;17.30;9.85;;;;;;;1.90;56.22;99521.25;4941145;28;97986;-81
2024/01/17 07:28:44;;;;;;;14.88;10.63;;;;;;;1.87;56.08;99515.28;4953606;28;97301;-81
2024/01/17 07:31:11;;;;;;;15.40;9.57;;;;;;;1.86;56.06;99511.78;4957966;28;97294;-81
2024/01/17 07:33:38;;;;;;;14.68;9.82;;;;;;;1.84;56.21;99518.97;4946309;28;97433;-81
2024/01/17 07:36:05;;;;;;;19.17;9.90;;;;;;;1.85;56.12;99509.22;4944560;28;100343;-81
2024/01/17 07:38:32;;;;;;;14.68;9.38;;;;;;;1.83;56.32;99514.59;4960518;28;98257;-81
2024/01/17 07:41:00;;;;;;;13.10;9.43;;;;;;;1.84;56.10;99496.94;4943654;28;96979;-78
2024/01/17 07:43:26;;;;;;;15.05;9.25;;;;;;;1.84;55.84;99497.78;4964040;28;98174;-81
2024/01/17 07:45:54;;;;;;;13.82;9.52;;;;;;;1.84;56.14;99497.78;4924561;28;98871;-81
2024/01/17 07:48:21;;;;;;;13.73;9.32;;;;;;;1.85;56.09;99494.19;4943332;28;98302;-80
2024/01/17 07:50:48;;;;;;;15.25;9.60;;;;;;;1.86;56.11;99495.91;4943974;28;97212;-82
2024/01/17 07:53:16;;;;;;;15.85;10.00;;;;;;;1.85;56.05;99486.25;4947616;28;98839;-81
2024/01/17 07:55:45;;;;;;;19.85;12.07;;;;;;;1.84;56.17;99492.50;4952412;28;100186;-81
2024/01/17 07:58:13;;;;;;;14.68;9.50;;;;;;;1.87;56.18;99494.97;4945545;28;100813;-81
2024/01/17 08:00:40;;;;;;;16.50;10.75;;;;;;;1.85;56.21;99483.59;4924616;28;97210;-81
2024/01/17 08:03:07;;;;;;;14.13;10.63;;;;;;;1.86;56.10;99473.88;4944261;28;97307;-81
2024/01/17 08:05:34;;;;;;;16.05;9.57;;;;;;;1.85;56.05;99464.22;4939767;28;97256;-80
2024/01/17 08:08:02;;;;;;;14.95;10.15;;;;;;;1.86;56.25;99463.28;4947938;28;98653;-80
2024/01/17 08:10:30;;;;;;;16.08;9.98;;;;;;;1.88;55.99;99458.75;4963384;28;97349;-81
2024/01/17 08:12:57;;;;;;;15.25;10.73;;;;;;;1.90;56.09;99446.28;4944183;28;98612;-81
2024/01/17 08:15:23;;;;;;;14.73;9.75;;;;;;;1.94;56.04;99442.53;4960769;28;99199;-81
2024/01/17 08:17:50;;;;;;;16.63;10.02;;;;;;;1.96;56.13;99447.72;4948762;28;97995;-80
2024/01/17 08:20:18;;;;;;;15.85;10.25;;;;;;;1.99;56.18;99442.25;4936186;28;97343;-81
2024/01/17 08:22:47;;;;;;;15.00;10.68;;;;;;;2.00;56.04;99431.56;4961054;28;97531;-81
2024/01/17 08:25:15;;;;;;;25.05;11.65;;;;;;;2.04;55.99;99425.16;4944969;28;98024;-81
2024/01/17 08:27:43;;;;;;;13.60;10.20;;;;;;;2.07;56.00;99419.66;4929086;28;100251;-81
2024/01/17 08:30:14;;;;;;;12.38;9.60;;;;;;;2.09;56.02;99419.59;4938469;28;97825;-81
2024/01/17 08:32:41;;;;;;;16.38;10.27;;;;;;;2.09;56.00;99412.50;4938073;28;96880;-80
2024/01/17 08:35:10;;;;;;;17.13;10.35;;;;;;;2.12;55.90;99408.81;4937919;28;98387;-80
2024/01/17 08:37:38;;;;;;;14.88;9.68;;;;;;;2.17;56.33;99419.97;4958472;28;101099;-81
2024/01/17 08:40:07;;;;;;;14.18;9.63;;;;;;;2.17;56.14;99412.88;4943281;28;98391;-81
2024/01/17 08:42:34;;;;;;;16.08;10.10;;;;;;;2.17;55.79;99415.53;4920807;28;98192;-80
2024/01/17 08:45:01;;;;;;;13.75;8.95;;;;;;;2.19;56.01;99413.66;4957455;28;98041;-80
2024/01/17 08:47:28;;;;;;;14.02;9.43;;;;;;;2.25;56.00;99415.13;4943114;28;100356;-81
2024/01/17 08:50:00;;;;;;;13.55;9.93;;;;;;;2.32;55.96;99403.19;4926810;28;98457;-81
2024/01/17 08:52:27;;;;;;;16.73;9.82;;;;;;;2.38;56.07;99405.47;4928749;28;97160;-82
2024/01/17 08:54:57;;;;;;;12.93;9.38;;;;;;;2.45;55.94;99393.56;4939866;28;97264;-81
2024/01/17 08:57:24;;;;;;;13.32;9.50;;;;;;;2.47;55.87;99399.63;4939142;28;98326;-81
2024/01/17 08:59:51;;;;;;;15.70;9.50;;;;;;;2.48;55.98;99393.38;4953015;28;99511;-80
2024/01/17 09:02:17;;;;;;;13.68;9.48;;;;;;;2.53;55.93;99377.19;4968584;28;98182;-80
2024/01/17 09:04:44;;;;;;;14.82;9.68;;;;;;;2.59;55.88;99389.22;4955570;28;100150;-80
2024/01/17 09:07:11;;;;;;;14.73;9.68;;;;;;;2.61;55.84;99382.88;4971409;28;97893;-81
2024/01/17 09:09:38;;;;;;;15.00;10.15;;;;;;;2.61;55.75;99379.38;4943323;28;97894;-80
2024/01/17 09:12:05;;;;;;;13.95;9.60;;;;;;;2.62;55.85;99384.56;4962426;28;97021;-81
2024/01/17 09:14:32;;;;;;;12.80;10.27;;;;;;;2.66;55.89;99377.28;4947955;28;100185;-80
2024/01/17 09:16:59;;;;;;;17.10;11.48;;;;;;;2.69;55.79;99372.66;4947961;28;98346;-80
2024/01/17 09:19:26;;;;;;;15.70;11.55;;;;;;;2.74;55.89;99367.06;4957517;28;97293;-80
2024/01/17 09:21:57;;;;;;;29.98;16.58;;;;;;;2.80;56.05;99377.28;4958664;28;97331;-81
2024/01/17 09:24:24;;;;;;;23.27;15.27;;;;;;;2.85;55.96;99372.53;4945031;28;98594;-80
2024/01/17 09:26:51;;;;;;;15.27;10.45;;;;;;;2.86;55.75;99350.38;4941659;28;98301;-81
2024/01/17 09:29:19;;;;;;;13.77;9.25;;;;;;;2.85;55.72;99348.69;4929219;28;97221;-80
2024/01/17 09:31:47;;;;;;;12.88;9.23;;;;;;;2.86;55.61;99360.97;4942082;28;98513;-80
2024/01/17 09:34:14;;;;;;;14.02;8.82;;;;;;;2.89;55.60;99350.19;4960012;28;100172;-80
2024/01/17 09:36:42;;;;;;;11.82;8.70;;;;;;;2.91;55.54;99348.28;4924085;28;100449;-80
2024/01/17 09:39:09;;;;;;;12.55;9.20;;;;;;;2.89;55.47;99344.88;4941274;28;97063;-81
2024/01/17 09:41:36;;;;;;;13.77;9.38;;;;;;;2.86;55.55;99353.88;4943479;28;97346;-83
2024/01/17 09:44:04;;;;;;;15.02;9.27;;;;;;;2.86;55.42;99339.78;4955438;28;100087;-81
2024/01/17 09:46:34;;;;;;;16.73;9.40;;;;;;;2.90;55.51;99335.13;4942657;28;100249;-80
2024/01/17 09:49:02;;;;;;;15.00;9.38;;;;;;;2.92;55.48;99328.78;4955269;28;97731;-80
2024/01/17 09:51:32;;;;;;;13.20;8.95;;;;;;;2.88;55.38;99330.78;4956622;28;97113;-80
2024/01/17 09:54:04;;;;;;;14.45;9.95;;;;;;;2.83;55.18;99334.66;4945495;28;97315;-80
2024/01/17 09:56:33;;;;;;;14.95;9.57;;;;;;;2.83;55.36;99339.97;4917943;28;98832;-80
2024/01/17 09:59:13;;;;;;;13.98;8.90;;;;;;;2.80;55.31;99337.50;4940823;28;99099;-81
2024/01/17 10:01:41;;;;;;;14.63;9.13;;;;;;;2.80;55.35;99345.47;4958390;28;97356;-81
2024/01/17 10:04:11;;;;;;;12.60;9.20;;;;;;;2.82;55.29;99344.41;4937968;28;97574;-81
2024/01/17 10:06:42;;;;;;;17.65;9.85;;;;;;;2.89;55.40;99336.94;4938328;28;100525;-80
2024/01/17 10:09:10;;;;;;;12.73;9.15;;;;;;;2.95;55.32;99341.84;4963684;28;98624;-81
2024/01/17 10:11:38;;;;;;;15.40;9.90;;;;;;;3.01;55.35;99330.88;4936532;28;98501;-82
2024/01/17 10:14:05;;;;;;;15.40;9.48;;;;;;;3.01;55.22;99314.97;4917036;28;100419;-81
2024/01/17 10:16:32;;;;;;;14.23;10.35;;;;;;;3.02;55.31;99321.13;4962353;28;98469;-81
2024/01/17 10:19:00;;;;;;;14.70;9.20;;;;;;;3.07;55.24;99330.47;4939305;28;97978;-81
2024/01/17 10:21:31;;;;;;;13.18;8.82;;;;;;;3.06;55.28;99312.00;4935448;28;97408;-81
2024/01/17 10:24:01;;;;;;;15.43;9.60;;;;;;;3.01;55.10;99304.34;4936640;28;97958;-82
2024/01/17 10:26:30;;;;;;;14.93;9.27;;;;;;;2.97;55.12;99292.22;4939302;28;99326;-82
2024/01/17 10:28:57;;;;;;;15.43;9.75;;;;;;;2.95;55.21;99293.25;4945956;28;97389;-81
2024/01/17 10:31:24;;;;;;;16.10;9.98;;;;;;;2.93;55.18;99293.34;4941290;28;98721;-81
2024/01/17 10:33:51;;;;;;;16.60;10.15;;;;;;;2.97;55.17;99292.22;4954316;28;100415;-81
2024/01/17 10:36:18;;;;;;;15.95;10.38;;;;;;;3.06;55.25;99282.84;4936539;28;98426;-82
2024/01/17 10:38:49;;;;;;;14.55;10.85;;;;;;;3.15;54.97;99271.63;4955485;28;97581;-82
2024/01/17 10:41:16;;;;;;;14.80;10.57;;;;;;;3.24;55.33;99270.16;4951278;28;98281;-81
2024/01/17 10:43:56;;;;;;;18.13;9.82;;;;;;;3.28;55.14;99263.72;4957793;28;97760;-81
2024/01/17 10:46:24;;;;;;;15.68;10.48;;;;;;;3.29;55.00;99255.66;4946835;28;100431;-82
2024/01/17 10:48:51;;;;;;;16.10;10.07;;;;;;;3.28;54.99;99266.34;4939796;28;99255;-82
2024/01/17 10:51:20;;;;;;;13.30;9.93;;;;;;;3.28;55.12;99259.25;4933618;28;98784;-82
2024/01/17 10:53:49;;;;;;;14.98;10.45;;;;;;;3.28;55.10;99247.78;4957734;28;98611;-81
2024/01/17 10:56:22;;;;;;;16.20;10.43;;;;;;;3.32;55.19;99250.13;4950847;28;101094;-82
2024/01/17 10:58:52;;;;;;;18.00;10.40;;;;;;;3.41;55.08;99246.00;4942732;28;97750;-82
2024/01/17 11:01:48;;;;;;;14.77;10.40;;;;;;;3.48;55.13;99242.00;4959094;28;98948;-81
2024/01/17 11:04:23;;;;;;;17.60;10.13;;;;;;;3.50;55.02;99235.63;4918891;28;99257;-82
2024/01/17 11:06:51;;;;;;;17.27;10.18;;;;;;;3.52;55.13;99240.84;4969614;28;97924;-80
2024/01/17 11:09:22;;;;;;;16.17;10.25;;;;;;;3.54;54.89;99236.28;4958254;28;100042;-80
2024/01/17 11:11:49;;;;;;;16.13;11.15;;;;;;;3.60;55.02;99235.84;4950972;28;97007;-80
2024/01/17 11:14:17;;;;;;;17.60;10.77;;;;;;;3.63;54.90;99230.34;4950896;28;100817;-80
2024/01/17 11:16:52;;;;;;;15.00;9.40;;;;;;;3.59;54.90;99214.72;4956454;28;99976;-80
2024/01/17 11:19:20;;;;;;;15.98;10.30;;;;;;;3.51;54.84;99210.78;4948705;28;99210;-81
2024/01/17 11:21:48;;;;;;;16.75;10.13;;;;;;;3.52;54.69;99208.97;4968075;28;97334;-80
2024/01/17 11:24:20;;;;;;;18.83;11.55;;;;;;;3.52;54.95;99203.69;4950609;28;98489;-81
2024/01/17 11:26:56;;;;;;;13.40;10.23;;;;;;;3.56;55.05;99197.19;4955013;28;98206;-80
2024/01/17 11:29:34;;;;;;;15.60;10.52;;;;;;;3.61;55.02;99192.44;4950436;28;97127;-79